الصفحة الرئيسية
METAR-TAF:

METAR-TAF

مطار :

سكوتسبلوف, نبراسكا, الولايات المتحدة

دائرة عرض: 41-52-01N, خط طول: 103-35-09W, ارتفاع: 1208 متر

مراقبة الطقس الحالي

تاريخ ووقت الإصدار 1ساعة و 6 دقيقة قبل الساعة 04:53UTC
ريح 3 عقدة من الشرق/الشمال الشرقي
درجة الحرارة -3°درجة مئوية
الرطوبة 93%
ضغط 1021 hPa
الرؤية: 16.1 كم
سماء صافية

METAR: KBFF 210453Z AUTO 06003KT 10SM CLR M03/M04 A3015 RMK AO2 SLP232 T10281039

زمن: 22:59 (05:59 UTC)

توقعات

تاريخ ووقت الإصدار 39 دقيقة قبل الساعة 05:20UTC
التوقعات صالحة من21 الساعة 06 UTC إلى 22 الساعة 06 UTC
ريح 5 عقدةمن اتجاهات متغيرة
الرؤية: 10 كم
سماء صافية

TAF: KBFF 210520Z 2106/2206 VRB05KT P6SM SKC

أرصاد الطقس والتوقعات من أكثر من 4000 مطار (تقارير الطقس للمطار METAR والتنبؤ بالطقس بالمطارTAF).

المحطات المتاحة هي النقط الصفراء والحمراء على الخريطة.

حرك المؤشر فوق النقطة لمعرفة اسم المحطة.

ثم انقر لمعرفة أرصاد وتوقعات الطقس.

لتغيير الخارطة: اضغط على الأزرار الخضراء مع رمز الصليب الأسود للتكبير. على الزر الأخضر مع شرطة للتصغير، أو على الأسهم الخضراء للخرائط المجاورة.


METAR-TAF: